Time;durP1;ratioP1;P1;durP2;ratioP2;P2;SDS_P1;SDS_P2;PMS_P1;PMS_P2;Temp;Humidity;BMP_temperature;BMP_pressure;BME280_temperature;BME280_humidity;BME280_pressure;Samples;Min_cycle;Max_cycle;Signal;HPM_P1;HPM_P2
2023/04/01 00:03:32;;;;;;;3.90;2.50;;;;;;;-1.69;96.17;99918.94;10525443;28;20044;-78
2023/04/01 00:08:35;;;;;;;3.85;2.78;;;;;;;-1.67;96.35;99925.72;10523453;28;20043;-78
2023/04/01 00:13:37;;;;;;;2.95;2.17;;;;;;;-1.64;96.27;99911.84;10510323;28;20036;-76
2023/04/01 00:18:39;;;;;;;3.15;2.85;;;;;;;-1.52;96.17;99926.22;10527544;28;20036;-77
2023/04/01 00:23:42;;;;;;;1.52;1.25;;;;;;;-1.65;95.80;99912.88;10525890;28;20048;-77
2023/04/01 00:28:44;;;;;;;2.78;2.30;;;;;;;-1.85;95.55;99915.72;10530696;28;20040;-77
2023/04/01 00:33:46;;;;;;;3.15;2.72;;;;;;;-1.92;95.52;99916.81;10522720;28;20036;-78
2023/04/01 00:38:50;;;;;;;3.53;2.60;;;;;;;-2.01;95.61;99920.81;10504643;28;20036;-78
2023/04/01 00:43:52;;;;;;;4.15;2.17;;;;;;;-2.00;95.74;99927.81;10533070;28;20470;-77
2023/04/01 00:48:55;;;;;;;2.92;2.15;;;;;;;-1.97;96.36;99927.38;10507265;28;20071;-77
2023/04/01 00:53:59;;;;;;;2.10;1.90;;;;;;;-1.93;96.20;99912.47;10511795;28;20526;-77
2023/04/01 00:59:08;;;;;;;2.85;2.20;;;;;;;-1.97;96.30;99914.78;10510922;28;20067;-77
2023/04/01 01:04:31;;;;;;;2.80;2.15;;;;;;;-1.95;96.41;99915.38;10491968;28;20420;-79
2023/04/01 01:09:45;;;;;;;2.78;2.58;;;;;;;-1.94;96.49;99916.19;10497646;28;20052;-78
2023/04/01 01:14:54;;;;;;;2.30;2.10;;;;;;;-1.98;96.75;99909.63;10504657;28;20040;-78
2023/04/01 01:20:06;;;;;;;;;;;;;;;-1.94;96.34;99916.19;10510227;28;20036;-79
2023/04/01 01:25:27;;;;;;;2.83;2.30;;;;;;;-1.93;96.25;99909.78;10510604;28;19920;-78
2023/04/01 01:30:41;;;;;;;2.30;2.10;;;;;;;-1.88;96.59;99913.47;10523276;28;20047;-79
2023/04/01 01:35:55;;;;;;;1.48;1.38;;;;;;;-1.78;96.38;99914.84;10506300;28;20045;-79
2023/04/01 01:40:59;;;;;;;1.83;1.67;;;;;;;-1.77;96.14;99909.25;10508775;28;20041;-78
2023/04/01 01:46:07;;;;;;;2.22;2.03;;;;;;;-1.74;96.10;99914.19;10473152;28;20071;-78
2023/04/01 01:51:09;;;;;;;2.35;2.15;;;;;;;-1.75;96.13;99914.41;10487764;28;20530;-76
2023/04/01 01:56:15;;;;;;;0.95;0.85;;;;;;;-1.77;95.54;99913.81;10534954;28;20040;-79
2023/04/01 02:01:23;;;;;;;1.70;1.60;;;;;;;-1.73;95.52;99910.47;10531933;28;20041;-80
2023/04/01 02:06:29;;;;;;;0.85;0.75;;;;;;;-1.79;95.27;99911.34;10509124;28;20036;-79
2023/04/01 02:11:40;;;;;;;2.20;2.00;;;;;;;-1.79;95.44;99903.25;10522192;28;20059;-79
2023/04/01 02:16:49;;;;;;;2.58;2.33;;;;;;;-1.75;94.85;99900.97;10539928;28;20044;-78
2023/04/01 02:21:56;;;;;;;4.15;2.33;;;;;;;-1.88;95.03;99905.41;10510180;28;20042;-78
2023/04/01 02:26:59;;;;;;;3.00;2.40;;;;;;;-1.88;95.18;99904.59;10529087;28;20036;-79
2023/04/01 02:32:02;;;;;;;4.70;2.03;;;;;;;-1.92;95.12;99909.56;10513126;28;20045;-78
2023/04/01 02:37:04;;;;;;;1.27;0.93;;;;;;;-1.92;95.49;99909.56;10509103;28;20048;-78
2023/04/01 02:42:07;;;;;;;2.67;2.05;;;;;;;-1.97;95.24;99903.19;10514265;28;20036;-79
2023/04/01 02:47:10;;;;;;;2.53;1.65;;;;;;;-1.95;95.11;99909.16;10513431;28;20407;-78
2023/04/01 02:52:16;;;;;;;1.35;1.25;;;;;;;-2.09;95.31;99899.53;10516731;28;20056;-78
2023/04/01 02:57:25;;;;;;;2.55;2.20;;;;;;;-2.05;95.11;99911.53;10507057;28;20040;-78
2023/04/01 03:02:28;;;;;;;2.08;1.75;;;;;;;-2.07;95.23;99902.88;10526939;28;20036;-78
2023/04/01 03:07:56;;;;;;;2.78;2.10;;;;;;;-2.14;95.58;99908.25;10525893;28;20044;-78
2023/04/01 03:12:59;;;;;;;2.03;1.83;;;;;;;-2.10;95.32;99920.22;10522899;28;20051;-79
2023/04/01 03:18:05;;;;;;;1.85;1.58;;;;;;;-2.04;95.35;99921.25;10529264;28;20041;-78
2023/04/01 03:23:08;;;;;;;2.00;1.67;;;;;;;-2.13;95.62;99916.09;10513211;28;20480;-81
2023/04/01 03:28:10;;;;;;;1.90;1.80;;;;;;;-2.15;95.58;99920.88;10528511;28;20515;-78
2023/04/01 03:33:16;;;;;;;2.55;2.35;;;;;;;-2.12;95.40;99931.19;10506889;28;20416;-79
2023/04/01 03:38:18;;;;;;;2.40;2.10;;;;;;;-2.12;95.82;99928.50;10519520;28;20033;-80
2023/04/01 03:43:26;;;;;;;3.00;2.05;;;;;;;-2.07;96.07;99938.63;10510686;28;20041;-78
2023/04/01 03:48:28;;;;;;;1.60;1.50;;;;;;;-2.16;95.86;99934.53;10492797;28;20403;-78
2023/04/01 03:54:00;;;;;;;1.80;1.67;;;;;;;-2.13;95.97;99940.31;10495232;28;20044;-78
2023/04/01 03:59:07;;;;;;;2.05;1.85;;;;;;;-2.14;96.15;99935.16;10525440;28;20041;-79
2023/04/01 04:04:14;;;;;;;2.70;1.65;;;;;;;-2.14;96.42;99938.66;10498803;28;20052;-78
2023/04/01 04:09:17;;;;;;;2.47;1.95;;;;;;;-2.07;96.74;99948.56;10478645;28;20044;-78
2023/04/01 04:14:19;;;;;;;2.30;2.10;;;;;;;-2.00;96.88;99949.34;10507565;28;20044;-78
2023/04/01 04:19:22;;;;;;;2.00;1.90;;;;;;;-2.06;97.23;99945.66;10509628;28;20059;-78
2023/04/01 04:24:25;;;;;;;2.58;1.85;;;;;;;-2.01;96.71;99943.13;10492639;28;20051;-79
2023/04/01 04:29:42;;;;;;;2.97;2.00;;;;;;;-2.02;96.76;99940.66;10505512;28;20515;-80
2023/04/01 04:34:49;;;;;;;2.42;2.00;;;;;;;-2.15;96.62;99947.75;10500159;28;20051;-80
2023/04/01 04:39:55;;;;;;;2.13;1.50;;;;;;;-2.09;96.27;99953.31;10513981;28;20039;-79
2023/04/01 04:44:58;;;;;;;2.35;2.15;;;;;;;-2.11;96.37;99953.53;10491664;28;20037;-79
2023/04/01 04:50:00;;;;;;;1.70;1.50;;;;;;;-2.03;96.34;99944.41;10504630;28;20150;-80
2023/04/01 04:55:04;;;;;;;2.10;1.90;;;;;;;-1.98;96.05;99950.75;10504183;28;20416;-78
2023/04/01 05:00:07;;;;;;;2.20;2.00;;;;;;;-1.96;96.04;99947.84;10510190;28;20047;-78
2023/04/01 05:05:39;;;;;;;2.53;2.03;;;;;;;-1.95;96.02;99950.31;10497858;28;20034;-78
2023/04/01 05:10:42;;;;;;;2.85;2.00;;;;;;;-1.90;95.87;99947.00;10496377;28;20487;-79
2023/04/01 05:15:46;;;;;;;1.95;1.75;;;;;;;-1.78;95.36;99947.94;10520731;28;20033;-79
2023/04/01 05:20:54;;;;;;;2.83;1.92;;;;;;;-1.80;94.99;99960.78;10508847;28;20037;-79
2023/04/01 05:25:58;;;;;;;2.20;2.00;;;;;;;-1.84;94.48;99955.03;10492136;28;20041;-77
2023/04/01 05:31:01;;;;;;;2.30;1.90;;;;;;;-1.71;94.66;99964.06;10534215;28;20045;-79
2023/04/01 05:36:14;;;;;;;1.65;1.40;;;;;;;-1.62;94.26;99963.53;10485767;28;20123;-79
2023/04/01 05:41:17;;;;;;;2.67;1.88;;;;;;;-1.61;93.85;99959.00;10504544;28;20044;-79
2023/04/01 05:46:23;;;;;;;2.47;2.28;;;;;;;-1.57;93.78;99976.34;10531045;28;20044;-79
2023/04/01 05:51:39;;;;;;;2.35;2.00;;;;;;;-1.47;93.25;99962.41;10511673;28;20055;-80
2023/04/01 05:56:41;;;;;;;2.40;1.95;;;;;;;-1.58;93.14;99972.81;10516846;28;20403;-79
2023/04/01 06:01:44;;;;;;;1.83;1.60;;;;;;;-1.27;93.00;99968.44;10535718;28;20397;-79
2023/04/01 06:06:51;;;;;;;3.72;2.10;;;;;;;-1.35;92.33;99971.44;10513227;28;20443;-79
2023/04/01 06:12:08;;;;;;;3.05;2.00;;;;;;;-1.34;92.34;99976.59;10531448;28;20055;-79
2023/04/01 06:17:41;;;;;;;2.42;2.22;;;;;;;-1.11;92.04;99961.69;10520054;28;20043;-78
2023/04/01 06:22:56;;;;;;;2.95;2.47;;;;;;;-1.28;91.41;99978.38;10511778;28;20047;-79
2023/04/01 06:28:23;;;;;;;3.53;2.65;;;;;;;-1.47;91.53;99979.38;10517070;28;20044;-79
2023/04/01 06:33:40;;;;;;;2.88;2.40;;;;;;;-1.47;91.68;99978.56;10502511;28;20075;-79
2023/04/01 06:38:51;;;;;;;5.07;2.30;;;;;;;-1.41;91.60;99977.66;10496486;28;20051;-79
2023/04/01 06:44:00;;;;;;;3.33;2.40;;;;;;;-1.39;91.80;99983.66;10502495;28;20206;-79
2023/04/01 06:49:28;;;;;;;4.25;2.65;;;;;;;-1.35;90.92;99990.25;10520100;28;20053;-80
2023/04/01 06:54:55;;;;;;;4.15;2.50;;;;;;;-1.42;91.39;99990.28;10526228;28;20032;-79
2023/04/01 07:00:43;;;;;;;7.82;2.70;;;;;;;-1.40;91.31;99992.75;10422868;28;20048;-81
2023/04/01 07:05:46;;;;;;;5.47;3.15;;;;;;;-1.34;91.41;99999.97;10497823;28;20492;-79
2023/04/01 07:10:59;;;;;;;12.70;3.85;;;;;;;-1.31;91.52;99991.47;10505988;28;20488;-79
2023/04/01 07:16:32;;;;;;;6.57;2.70;;;;;;;-1.46;91.26;99999.03;10494188;28;20063;-81
2023/04/01 07:22:14;;;;;;;10.48;3.30;;;;;;;-1.49;91.40;100002.16;10496128;28;20043;-79
2023/04/01 07:27:35;;;;;;;14.32;4.35;;;;;;;-1.45;91.96;100012.25;10478728;28;20416;-78
2023/04/01 07:32:49;;;;;;;8.02;3.00;;;;;;;-1.50;91.84;100016.66;10495231;28;20484;-78
2023/04/01 07:38:28;;;;;;;11.40;3.00;;;;;;;-1.42;91.97;100022.59;10508251;28;20064;-78
2023/04/01 07:43:36;;;;;;;12.43;4.18;;;;;;;-1.43;92.27;100023.63;10511561;28;20043;-79
2023/04/01 07:49:17;;;;;;;3.03;2.17;;;;;;;-1.35;92.51;100026.06;10505498;28;20048;-78
2023/04/01 07:54:29;;;;;;;4.47;2.30;;;;;;;-1.41;92.45;100034.19;10517429;28;20074;-79
2023/04/01 07:59:57;;;;;;;2.45;2.15;;;;;;;-1.29;92.53;100032.44;10495777;28;20043;-78
2023/04/01 08:05:22;;;;;;;2.60;2.40;;;;;;;-1.12;92.25;100033.53;10508758;28;20066;-79
2023/04/01 08:10:30;;;;;;;4.32;2.40;;;;;;;-1.02;92.37;100033.06;10501543;28;20048;-79
2023/04/01 08:16:12;;;;;;;8.02;2.30;;;;;;;-1.06;92.06;100051.50;10516602;28;20044;-82
2023/04/01 08:21:23;;;;;;;4.72;2.40;;;;;;;-1.14;91.81;100048.28;10478204;28;20420;-82
2023/04/01 08:26:32;;;;;;;11.20;3.10;;;;;;;-1.03;91.94;100045.72;10509899;28;20040;-78
2023/04/01 08:32:03;;;;;;;10.00;3.50;;;;;;;-0.97;91.31;100042.13;10486228;28;20040;-81
2023/04/01 08:37:17;;;;;;;4.10;2.28;;;;;;;-0.85;91.40;100060.25;10485695;28;20052;-80
2023/04/01 08:42:53;;;;;;;7.65;2.63;;;;;;;-0.82;91.34;100055.25;10469176;28;20059;-78
2023/04/01 08:48:53;;;;;;;7.70;2.67;;;;;;;-0.77;91.37;100068.03;10521550;28;20492;-83
2023/04/01 08:54:38;;;;;;;3.25;2.15;;;;;;;-0.70;90.99;100064.22;10373371;28;20086;-78
2023/04/01 09:00:05;;;;;;;2.80;2.20;;;;;;;-0.76;91.29;100070.53;10479657;28;20048;-77
2023/04/01 09:05:38;;;;;;;3.33;2.38;;;;;;;-0.77;91.04;100073.44;10510636;28;20048;-78
2023/04/01 09:10:57;;;;;;;8.25;2.42;;;;;;;-0.68;91.10;100088.28;10507022;28;20036;-79
2023/04/01 09:16:18;;;;;;;5.72;2.25;;;;;;;-0.68;91.36;100088.28;10545867;28;20047;-78
2023/04/01 09:21:43;;;;;;;14.43;3.40;;;;;;;-0.65;91.02;100087.84;10525092;28;20032;-79
2023/04/01 09:27:30;;;;;;;11.85;3.22;;;;;;;-0.63;91.31;100083.06;10499305;28;20051;-79
2023/04/01 09:33:00;;;;;;;3.17;2.53;;;;;;;-0.46;90.74;100096.78;10479819;28;20401;-79
2023/04/01 09:38:29;;;;;;;3.40;2.45;;;;;;;-0.36;90.66;100092.50;10483445;28;20046;-80
2023/04/01 09:43:47;;;;;;;2.70;2.30;;;;;;;-0.24;90.35;100098.00;10508012;28;20037;-78
2023/04/01 09:49:11;;;;;;;3.28;2.10;;;;;;;-0.16;90.29;100094.19;10503989;28;20039;-78
2023/04/01 09:54:37;;;;;;;4.55;2.60;;;;;;;-0.02;90.01;100098.38;10510903;28;20110;-78
2023/04/01 10:00:06;;;;;;;5.57;2.85;;;;;;;-0.07;90.26;100099.03;10516199;28;20412;-78
2023/04/01 10:05:17;;;;;;;7.80;2.65;;;;;;;-0.16;89.23;100102.28;10513010;28;20044;-79
2023/04/01 10:10:32;;;;;;;5.53;2.30;;;;;;;-0.21;89.51;100105.63;10508350;28;20496;-81
2023/04/01 10:15:37;;;;;;;12.25;4.47;;;;;;;-0.23;88.94;100112.28;10481418;28;20044;-79
2023/04/01 10:21:03;;;;;;;4.90;1.92;;;;;;;-0.29;89.56;100103.25;10514896;28;20032;-81
2023/04/01 10:26:28;;;;;;;52.58;6.65;;;;;;;-0.25;89.75;100115.22;10497948;28;20052;-79
2023/04/01 10:32:06;;;;;;;11.35;3.17;;;;;;;-0.22;89.63;100111.25;10518413;28;20036;-79
2023/04/01 10:37:45;;;;;;;5.72;2.70;;;;;;;-0.18;89.78;100121.34;10473519;28;20047;-79
2023/04/01 10:43:22;;;;;;;3.80;2.38;;;;;;;-0.06;89.87;100129.53;10496726;28;20028;-79
2023/04/01 10:49:11;;;;;;;13.57;3.10;;;;;;;0.20;89.45;100125.72;10511398;28;20037;-80
2023/04/01 10:54:51;;;;;;;2.65;2.33;;;;;;;0.13;88.57;100128.47;10495631;28;20048;-80
2023/04/01 11:00:50;;;;;;;8.05;3.00;;;;;;;0.28;88.22;100131.63;10521307;28;20036;-78
2023/04/01 11:06:32;;;;;;;3.65;2.30;;;;;;;0.22;87.20;100142.50;10504341;28;20045;-77
2023/04/01 11:11:57;;;;;;;4.40;2.67;;;;;;;0.34;87.04;100135.28;10525317;28;20388;-81
2023/04/01 11:17:05;;;;;;;3.38;2.80;;;;;;;0.39;86.13;100153.53;10507307;28;20516;-80
2023/04/01 11:22:26;;;;;;;4.70;2.58;;;;;;;0.52;85.50;100154.19;10501148;28;20586;-81
2023/04/01 11:27:49;;;;;;;5.30;2.45;;;;;;;0.55;84.66;100150.19;10517960;28;20044;-81
2023/04/01 11:32:54;;;;;;;4.10;2.38;;;;;;;0.52;83.55;100156.88;10497266;28;20040;-81
2023/04/01 11:38:20;;;;;;;4.97;2.30;;;;;;;0.54;82.31;100162.06;10519979;28;20040;-81
2023/04/01 11:43:31;;;;;;;6.35;2.53;;;;;;;0.53;81.78;100155.84;10508608;28;20047;-82
2023/04/01 11:48:56;;;;;;;2.30;1.90;;;;;;;0.58;80.38;100166.75;10522817;28;20385;-80
2023/04/01 11:54:01;;;;;;;4.90;2.10;;;;;;;0.62;79.54;100156.31;10504799;28;20044;-81
2023/04/01 11:59:26;;;;;;;31.70;3.78;;;;;;;0.63;78.91;100166.06;10512950;28;20047;-81
2023/04/01 12:05:08;;;;;;;5.30;1.92;;;;;;;0.67;77.47;100172.66;10477154;28;20049;-82
2023/04/01 12:10:18;;;;;;;10.70;2.75;;;;;;;0.68;77.64;100173.47;10502294;28;20040;-80
2023/04/01 12:15:23;;;;;;;8.05;2.47;;;;;;;0.60;76.05;100170.06;10496847;28;20045;-80
2023/04/01 12:20:44;;;;;;;9.95;3.30;;;;;;;0.70;76.78;100188.44;10511192;28;20036;-82
2023/04/01 12:25:55;;;;;;;2.83;2.10;;;;;;;0.78;76.06;100188.09;10511166;28;20412;-82
2023/04/01 12:31:14;;;;;;;3.83;1.63;;;;;;;0.55;75.02;100196.09;10491041;28;20036;-80
2023/04/01 12:36:37;;;;;;;1.73;1.63;;;;;;;0.57;74.93;100200.22;10502728;28;20044;-81
2023/04/01 12:41:45;;;;;;;5.03;2.50;;;;;;;0.64;73.52;100210.09;10504614;28;20454;-80
2023/04/01 12:47:00;;;;;;;3.70;1.80;;;;;;;0.64;72.85;100200.13;10499891;28;20035;-79
2023/04/01 12:52:10;;;;;;;29.83;3.85;;;;;;;0.75;71.82;100201.25;10492670;28;20048;-80
2023/04/01 12:58:03;;;;;;;6.85;2.42;;;;;;;0.82;72.27;100205.50;10492401;28;20048;-78
2023/04/01 13:03:44;;;;;;;7.22;1.80;;;;;;;0.93;70.45;100208.50;10374992;28;20055;-79
2023/04/01 13:08:59;;;;;;;3.40;1.23;;;;;;;1.03;70.24;100219.56;10501055;28;20040;-79
2023/04/01 13:14:04;;;;;;;11.23;2.38;;;;;;;1.08;70.18;100217.00;10494704;28;20063;-78
2023/04/01 13:19:11;;;;;;;17.13;2.65;;;;;;;1.14;69.78;100208.78;10517202;28;20471;-79
2023/04/01 13:24:47;;;;;;;2.20;2.00;;;;;;;1.16;69.45;100222.06;10486124;28;20044;-79
2023/04/01 13:30:08;;;;;;;4.82;1.80;;;;;;;1.16;68.68;100241.81;10486498;28;20029;-78
2023/04/01 13:35:35;;;;;;;6.32;1.70;;;;;;;1.17;68.12;100239.94;10474162;28;20036;-78
2023/04/01 13:40:40;;;;;;;10.60;2.50;;;;;;;1.17;67.47;100254.28;10491420;28;20033;-79
2023/04/01 13:46:05;;;;;;;8.35;2.05;;;;;;;1.40;67.41;100241.91;10510313;28;20488;-80
2023/04/01 13:51:35;;;;;;;16.90;2.90;;;;;;;1.38;65.65;100242.13;10513643;28;20060;-78
2023/04/01 13:56:41;;;;;;;4.15;1.80;;;;;;;1.16;64.34;100249.91;10529949;28;20070;-79
2023/04/01 14:01:49;;;;;;;5.05;1.55;;;;;;;1.09;61.54;100257.31;10504322;28;20052;-79
2023/04/01 14:07:35;;;;;;;2.80;1.50;;;;;;;1.10;61.54;100266.22;10519945;28;20496;-80
2023/04/01 14:13:06;;;;;;;6.85;1.67;;;;;;;1.05;58.86;100266.94;10495499;28;20044;-81
2023/04/01 14:18:37;;;;;;;2.05;1.40;;;;;;;1.13;58.97;100280.09;10495557;28;20041;-81
2023/04/01 14:23:49;;;;;;;2.35;1.40;;;;;;;1.10;58.28;100279.75;10473107;28;20033;-80
2023/04/01 14:29:19;;;;;;;7.72;1.52;;;;;;;1.03;58.24;100284.41;10489179;28;20045;-79
2023/04/01 14:34:29;;;;;;;4.18;1.20;;;;;;;1.04;57.96;100292.31;10512296;28;20043;-78
2023/04/01 14:39:53;;;;;;;3.13;0.80;;;;;;;0.76;57.48;100294.72;10500828;28;20039;-79
2023/04/01 14:45:24;;;;;;;1.95;0.93;;;;;;;0.72;57.75;100297.03;10519735;28;20057;-82
2023/04/01 14:50:29;;;;;;;1.10;0.80;;;;;;;0.62;59.64;100298.59;10513502;28;20138;-80
2023/04/01 14:55:48;;;;;;;1.52;1.08;;;;;;;0.58;59.40;100309.84;10511342;28;20033;-79
2023/04/01 15:00:59;;;;;;;1.88;1.00;;;;;;;0.49;60.58;100310.34;10471680;28;20036;-79
2023/04/01 15:06:32;;;;;;;2.03;1.05;;;;;;;0.43;59.53;100322.06;10496639;28;20074;-80
2023/04/01 15:11:49;;;;;;;1.80;1.23;;;;;;;0.78;59.43;100325.00;10521720;28;20039;-81
2023/04/01 15:17:17;;;;;;;1.63;1.52;;;;;;;0.77;59.58;100326.88;10507365;28;20049;-80
2023/04/01 15:22:54;;;;;;;2.33;1.40;;;;;;;0.62;60.38;100329.13;10508330;28;20040;-79
2023/04/01 15:28:24;;;;;;;4.63;2.00;;;;;;;0.78;60.55;100342.03;10508776;28;20032;-79
2023/04/01 15:33:37;;;;;;;7.80;3.28;;;;;;;0.84;60.35;100356.50;10500710;28;20131;-79
2023/04/01 15:38:52;;;;;;;5.10;1.50;;;;;;;0.74;60.41;100361.63;10518133;28;20033;-79
2023/04/01 15:43:55;;;;;;;5.45;1.90;;;;;;;0.87;61.03;100362.31;10500034;28;20520;-80
2023/04/01 15:49:09;;;;;;;8.07;3.05;;;;;;;0.89;62.41;100371.03;10532646;28;20044;-81
2023/04/01 15:54:20;;;;;;;7.70;2.70;;;;;;;0.87;62.42;100375.81;10483602;28;20051;-79
2023/04/01 15:59:41;;;;;;;8.10;2.72;;;;;;;1.00;63.73;100387.50;10523972;28;20036;-79
2023/04/01 16:04:46;;;;;;;3.97;1.95;;;;;;;0.98;64.06;100392.31;10501693;28;20036;-79
2023/04/01 16:10:10;;;;;;;5.63;1.85;;;;;;;1.04;64.14;100396.81;10508060;28;20040;-77
2023/04/01 16:15:25;;;;;;;2.38;1.20;;;;;;;0.97;64.80;100401.47;10508963;28;20047;-77
2023/04/01 16:20:41;;;;;;;4.05;1.88;;;;;;;1.00;64.87;100423.47;10533326;28;20041;-77
2023/04/01 16:26:07;;;;;;;2.25;1.33;;;;;;;0.93;65.07;100416.50;10527789;28;20047;-77
2023/04/01 16:31:26;;;;;;;3.25;1.60;;;;;;;0.69;65.58;100424.38;10530019;28;20419;-79
2023/04/01 16:36:32;;;;;;;6.50;1.55;;;;;;;0.77;66.23;100426.00;10519825;28;20550;-78
2023/04/01 16:41:37;;;;;;;2.97;1.70;;;;;;;0.59;66.13;100437.56;10510253;28;20372;-79
2023/04/01 16:46:54;;;;;;;3.70;1.92;;;;;;;0.64;67.44;100445.00;10515335;28;20045;-78
2023/04/01 16:52:03;;;;;;;6.93;1.80;;;;;;;0.69;67.03;100440.59;10530642;28;20052;-77
2023/04/01 16:57:43;;;;;;;3.00;1.48;;;;;;;0.78;67.79;100450.06;10515696;28;20037;-79
2023/04/01 17:03:17;;;;;;;2.65;1.42;;;;;;;0.73;67.98;100460.72;10525050;28;20040;-78
2023/04/01 17:08:38;;;;;;;2.78;1.45;;;;;;;0.60;68.61;100466.22;10515540;28;20048;-77
2023/04/01 17:14:03;;;;;;;3.75;1.35;;;;;;;0.61;69.55;100475.97;10529876;28;20522;-79
2023/04/01 17:19:44;;;;;;;3.17;1.75;;;;;;;0.70;69.37;100480.06;10519054;28;20047;-77
2023/04/01 17:25:09;;;;;;;4.30;1.25;;;;;;;0.58;68.92;100479.94;10513091;28;20546;-79
2023/04/01 17:30:39;;;;;;;4.10;1.70;;;;;;;0.62;69.41;100487.59;10530252;28;20050;-80
2023/04/01 17:36:21;;;;;;;1.92;1.30;;;;;;;0.93;69.29;100492.13;10497320;28;20847;-78
2023/04/01 17:41:35;;;;;;;2.75;1.60;;;;;;;0.92;69.18;100495.88;10534751;28;20064;-79
2023/04/01 17:46:56;;;;;;;2.60;1.50;;;;;;;0.74;69.79;100510.16;10514240;28;20044;-78
2023/04/01 17:52:09;;;;;;;2.78;1.63;;;;;;;0.67;70.99;100515.59;10514931;28;20048;-78
2023/04/01 17:57:36;;;;;;;5.30;2.08;;;;;;;0.83;70.56;100520.44;10484922;28;20044;-79
2023/04/01 18:02:50;;;;;;;5.20;2.38;;;;;;;0.92;70.75;100521.00;10516704;28;20036;-78
2023/04/01 18:08:24;;;;;;;5.57;2.72;;;;;;;0.88;70.18;100520.63;10505546;28;20488;-80
2023/04/01 18:13:42;;;;;;;3.97;2.20;;;;;;;0.85;69.65;100522.94;10527764;28;20045;-80
2023/04/01 18:19:12;;;;;;;3.03;2.53;;;;;;;1.01;69.10;100524.25;10488514;28;20037;-79
2023/04/01 18:24:33;;;;;;;4.18;2.13;;;;;;;0.84;69.79;100524.81;10488000;28;20048;-78
2023/04/01 18:30:14;;;;;;;4.47;2.40;;;;;;;0.92;69.94;100531.00;10514222;28;20047;-80
2023/04/01 18:35:50;;;;;;;3.53;2.40;;;;;;;0.85;69.92;100529.16;10489614;28;20036;-80
2023/04/01 18:41:14;;;;;;;4.20;2.22;;;;;;;0.74;70.62;100538.00;10501964;28;20028;-79
2023/04/01 18:46:25;;;;;;;2.63;2.00;;;;;;;0.56;70.58;100535.22;10502679;28;20040;-77
2023/04/01 18:51:46;;;;;;;3.10;2.38;;;;;;;0.42;71.34;100541.75;10510571;28;20040;-80
2023/04/01 18:56:48;;;;;;;2.78;1.90;;;;;;;0.18;71.28;100548.72;10525199;28;20037;-77
2023/04/01 19:02:00;;;;;;;4.47;2.10;;;;;;;0.24;71.90;100551.38;10511511;28;20049;-80
2023/04/01 19:07:40;;;;;;;4.07;1.98;;;;;;;0.29;71.61;100561.53;10512379;28;20048;-79
2023/04/01 19:13:35;;;;;;;2.92;1.90;;;;;;;0.18;72.05;100557.66;10492588;28;20032;-77
2023/04/01 19:18:56;;;;;;;3.28;2.20;;;;;;;0.06;71.81;100564.75;10508865;28;20500;-76
2023/04/01 19:24:23;;;;;;;5.63;1.77;;;;;;;0.05;72.13;100570.38;10503847;28;20412;-78
2023/04/01 19:29:44;;;;;;;3.35;2.17;;;;;;;-0.03;71.86;100576.81;10504159;28;20432;-77
2023/04/01 19:35:08;;;;;;;2.17;1.60;;;;;;;-0.16;71.67;100577.72;10527857;28;20063;-78
2023/04/01 19:40:37;;;;;;;2.17;1.52;;;;;;;-0.25;72.51;100588.94;10501723;28;20821;-78
2023/04/01 19:45:55;;;;;;;2.20;1.90;;;;;;;-0.41;72.46;100596.41;10502020;28;20040;-78
2023/04/01 19:51:16;;;;;;;3.13;1.67;;;;;;;-0.47;72.74;100597.28;10497727;28;20044;-79
2023/04/01 19:56:22;;;;;;;2.15;1.50;;;;;;;-0.64;72.55;100613.06;10502561;28;20040;-79
2023/04/01 20:01:34;;;;;;;2.33;1.70;;;;;;;-0.67;72.83;100612.66;10517989;28;20040;-79
2023/04/01 20:07:18;;;;;;;2.83;1.90;;;;;;;-0.67;73.65;100618.03;10510613;28;20122;-78
2023/04/01 20:12:40;;;;;;;4.07;1.90;;;;;;;-0.62;73.56;100616.38;10300050;28;20039;-79
2023/04/01 20:17:47;;;;;;;4.30;1.50;;;;;;;-0.69;73.83;100631.72;10495939;28;20044;-79
2023/04/01 20:23:24;;;;;;;2.95;1.73;;;;;;;-0.79;74.02;100643.94;10511296;28;20145;-80
2023/04/01 20:28:43;;;;;;;4.23;1.67;;;;;;;-0.80;73.52;100644.97;10533861;28;20400;-78
2023/04/01 20:34:17;;;;;;;2.15;1.80;;;;;;;-0.92;74.12;100648.25;10519035;28;20051;-78
2023/04/01 20:39:53;;;;;;;3.15;1.85;;;;;;;-0.85;74.31;100659.06;10534900;28;20493;-78
2023/04/01 20:45:29;;;;;;;2.95;1.60;;;;;;;-1.00;74.22;100666.50;10520909;28;20039;-81
2023/04/01 20:50:44;;;;;;;2.28;1.50;;;;;;;-1.06;74.68;100673.50;10514425;28;20052;-80
2023/04/01 20:55:47;;;;;;;2.22;1.52;;;;;;;-1.16;75.15;100674.97;10503998;28;20048;-79
2023/04/01 21:01:13;;;;;;;2.80;1.50;;;;;;;-1.07;75.05;100681.78;10516682;28;20385;-77
2023/04/01 21:06:15;;;;;;;2.55;1.52;;;;;;;-1.21;75.37;100686.34;10510392;28;20047;-77
2023/04/01 21:11:32;;;;;;;1.88;1.50;;;;;;;-1.30;75.59;100692.94;10503800;28;20500;-79
2023/04/01 21:16:37;;;;;;;1.83;1.67;;;;;;;-1.15;75.40;100693.59;10523840;28;20028;-80
2023/04/01 21:21:50;;;;;;;1.90;1.50;;;;;;;-1.18;75.47;100706.66;10518552;28;20051;-80
2023/04/01 21:27:29;;;;;;;3.75;2.03;;;;;;;-1.14;75.65;100702.50;10522816;28;20040;-80
2023/04/01 21:33:20;;;;;;;3.33;1.80;;;;;;;-1.29;75.21;100716.94;10522362;28;20431;-78
2023/04/01 21:38:25;;;;;;;4.13;1.85;;;;;;;-1.37;75.27;100724.38;10525120;28;20032;-80
2023/04/01 21:43:40;;;;;;;3.38;1.40;;;;;;;-1.50;75.20;100732.41;10499551;28;20060;-78
2023/04/01 21:49:10;;;;;;;2.63;1.70;;;;;;;-1.41;75.92;100728.50;10523480;28;20419;-78
2023/04/01 21:54:34;;;;;;;1.48;0.90;;;;;;;-1.57;75.35;100735.88;10521738;28;20056;-77
2023/04/01 21:59:56;;;;;;;1.50;1.30;;;;;;;-1.62;75.60;100732.94;10504006;28;20048;-77
2023/04/01 22:05:25;;;;;;;1.30;1.20;;;;;;;-1.61;75.38;100744.53;10529844;28;20036;-76
2023/04/01 22:10:45;;;;;;;2.17;1.00;;;;;;;-1.50;75.59;100748.53;10457967;28;20052;-77
2023/04/01 22:16:03;;;;;;;1.80;1.40;;;;;;;-1.60;75.10;100738.97;10487003;28;20043;-77
2023/04/01 22:21:36;;;;;;;1.35;1.08;;;;;;;-1.61;75.17;100750.75;10502614;28;20047;-77
2023/04/01 22:26:59;;;;;;;3.00;1.40;;;;;;;-1.52;75.25;100736.13;10511493;28;20048;-77
2023/04/01 22:32:24;;;;;;;1.90;1.20;;;;;;;-1.44;75.22;100736.97;10493916;28;20669;-76
2023/04/01 22:37:51;;;;;;;2.05;1.00;;;;;;;-1.41;74.64;100756.22;10520297;28;20048;-77
2023/04/01 22:42:59;;;;;;;1.30;0.93;;;;;;;-1.36;74.17;100753.78;10515661;28;20037;-76
2023/04/01 22:53:40;;;;;;;1.95;1.17;;;;;;;-1.43;74.09;100771.75;10515957;28;20048;-76
2023/04/01 22:59:02;;;;;;;1.83;1.15;;;;;;;-1.41;73.94;100771.56;10538445;28;20499;-76
2023/04/01 23:04:06;;;;;;;3.72;1.55;;;;;;;-1.49;73.69;100771.72;10525661;28;20094;-76
2023/04/01 23:09:12;;;;;;;1.95;1.05;;;;;;;-1.55;74.65;100776.88;10539369;28;20689;-77
2023/04/01 23:14:20;;;;;;;2.30;1.45;;;;;;;-1.63;75.09;100774.34;10507367;28;20503;-77
2023/04/01 23:19:34;;;;;;;1.88;1.23;;;;;;;-1.67;76.28;100785.72;10525796;28;20047;-76
2023/04/01 23:25:17;;;;;;;2.67;1.40;;;;;;;-1.65;76.48;100780.97;10531176;28;20433;-77
2023/04/01 23:30:38;;;;;;;3.80;1.63;;;;;;;-1.65;76.67;100792.53;10523289;28;20071;-77
2023/04/01 23:35:51;;;;;;;2.55;1.50;;;;;;;-1.72;76.71;100801.63;10524371;28;20411;-77
2023/04/01 23:40:54;;;;;;;3.60;1.58;;;;;;;-1.82;77.51;100801.94;10520294;28;20068;-77
2023/04/01 23:45:59;;;;;;;3.03;1.63;;;;;;;-1.87;77.61;100809.78;10490942;28;20511;-76
2023/04/01 23:51:02;;;;;;;3.22;1.42;;;;;;;-1.84;77.92;100814.78;10505982;28;20056;-76
2023/04/01 23:56:05;;;;;;;2.75;1.23;;;;;;;-1.76;78.68;100821.84;10503348;28;21830;-76
